^^
Grace C. Lehan Memorial Weather Station Historical Data
Daily Summary for January 9, 2021 Units:  English    Metric   Both
Daily Weekly Monthly Yearly
  High: Low: Average:
Temperature: 37.9 °F 24.2 °F 31.5 °F
Dew Point: 23.3 °F 16.2 °F 19.1 °F
Humidity: 72% 51.3% 60%
Wind Speed: 7mph 0mph 2.2mph
Wind Gust: 18mph - -
Wind- - WNW
Pressure: 29.95 in 29.80 in -
Precipitation: 0.00 in    
 
 
Tabular Data for January 9, 2021
Time Temperature Dew Point Pressure Wind Wind Speed Wind Gust Humidity Rainfall Rate (Hourly) solar
00:04 27.6 °F 17.8 °F 29.84 in Calm   2 mph 66% 0.00 in 0 W/m2
00:09 27.6 °F 17.9 °F 29.84 in Calm     66.5% 0.00 in 0 W/m2
00:14 27.5 °F 18 °F 29.84 in Calm     67% 0.00 in 0 W/m2
00:19 27.4 °F 17.9 °F 29.84 in Calm     67.1% 0.00 in 0 W/m2
00:24 27.2 °F 18.1 °F 29.84 in Calm     68% 0.00 in 0 W/m2
00:29 27.2 °F 18 °F 29.84 in Calm     68% 0.00 in 0 W/m2
00:34 27 °F 17.9 °F 29.84 in Calm     68% 0.00 in 0 W/m2
00:39 26.9 °F 17.8 °F 29.84 in Calm     68% 0.00 in 0 W/m2
00:44 26.9 °F 18 °F 29.84 in Calm     68.9% 0.00 in 0 W/m2
00:49 26.7 °F 18 °F 29.84 in Calm     69.1% 0.00 in 0 W/m2
00:54 26.7 °F 18.2 °F 29.84 in NW 0.1 mph 3 mph 70% 0.00 in 0 W/m2
00:59 26.6 °F 18.1 °F 29.84 in NW 0.4 mph 3 mph 70% 0.00 in 0 W/m2
01:04 26.5 °F 18.1 °F 29.84 in NW 0.1 mph 3 mph 70% 0.00 in 0 W/m2
01:09 26.5 °F 18 °F 29.83 in Calm   2 mph 70% 0.00 in 0 W/m2
01:14 26.5 °F 18 °F 29.83 in NW 0.4 mph 3 mph 70% 0.00 in 0 W/m2
01:19 26.5 °F 18 °F 29.83 in NNW 2 mph 7 mph 70% 0.00 in 0 W/m2
01:24 26.5 °F 18.1 °F 29.83 in North 0.5 mph 7 mph 70% 0.00 in 0 W/m2
01:29 26.5 °F 17.8 °F 29.83 in NNW 1.5 mph 7 mph 69.3% 0.00 in 0 W/m2
01:34 26.5 °F 18.1 °F 29.83 in NNW 0.2 mph 7 mph 70% 0.00 in 0 W/m2
01:39 26.5 °F 17.9 °F 29.83 in NNW 1.2 mph 4 mph 69.7% 0.00 in 0 W/m2
01:44 26.5 °F 17.7 °F 29.83 in NNW 1.6 mph 7 mph 69% 0.00 in 0 W/m2
01:49 26.5 °F 17.7 °F 29.83 in NNW 1.3 mph 7 mph 69% 0.00 in 0 W/m2
01:54 26.5 °F 17.7 °F 29.83 in NNW 1.4 mph 7 mph 69% 0.00 in 0 W/m2
01:59 26.5 °F 17.7 °F 29.83 in NNW 2.3 mph 7 mph 69% 0.00 in 0 W/m2
02:04 26.6 °F 17.8 °F 29.83 in NNW 2.2 mph 10 mph 69% 0.00 in 0 W/m2
02:09 26.7 °F 17.7 °F 29.83 in NNW 2.7 mph 10 mph 68.3% 0.00 in 0 W/m2
02:14 26.9 °F 17.7 °F 29.83 in NNW 2.5 mph 10 mph 68% 0.00 in 0 W/m2
02:19 26.9 °F 17.8 °F 29.84 in North 2.4 mph 11 mph 68% 0.00 in 0 W/m2
02:24 27 °F 17.9 °F 29.84 in North 3.5 mph 11 mph 68% 0.00 in 0 W/m2
02:29 27.1 °F 17.9 °F 29.84 in NNW 2.9 mph 11 mph 67.9% 0.00 in 0 W/m2
02:34 27.1 °F 17.6 °F 29.84 in NNW 2.6 mph 11 mph 67% 0.00 in 0 W/m2
02:39 27.1 °F 17.6 °F 29.84 in NW 1.8 mph 9 mph 67% 0.00 in 0 W/m2
02:44 27.1 °F 17.6 °F 29.84 in NNW 1.7 mph 9 mph 67% 0.00 in 0 W/m2
02:49 27.1 °F 17.6 °F 29.83 in NNW 3.5 mph 9 mph 67% 0.00 in 0 W/m2
02:54 27 °F 17.5 °F 29.84 in NNW 2.5 mph 9 mph 67% 0.00 in 0 W/m2
02:59 27 °F 17.6 °F 29.83 in North 1.4 mph 9 mph 67.3% 0.00 in 0 W/m2
03:04 26.9 °F 17.8 °F 29.84 in NNW 2.3 mph 9 mph 68% 0.00 in 0 W/m2
03:09 26.8 °F 17.7 °F 29.84 in NNW 0.9 mph 5 mph 68% 0.00 in 0 W/m2
03:14 26.7 °F 17.6 °F 29.84 in NNW 1.6 mph 6 mph 68% 0.00 in 0 W/m2
03:19 26.7 °F 17.6 °F 29.84 in NNW 1.1 mph 6 mph 68% 0.00 in 0 W/m2
03:24 26.6 °F 17.5 °F 29.84 in NW 0.8 mph 7 mph 68% 0.00 in 0 W/m2
03:29 26.6 °F 17.4 °F 29.83 in NW 1.5 mph 7 mph 68% 0.00 in 0 W/m2
03:34 26.5 °F 17.4 °F 29.84 in NW 2 mph 7 mph 68% 0.00 in 0 W/m2
03:39 26.5 °F 17.4 °F 29.83 in NW 0.5 mph 7 mph 68% 0.00 in 0 W/m2
03:44 26.5 °F 17.3 °F 29.83 in NW 0.3 mph 7 mph 68% 0.00 in 0 W/m2
03:49 26.4 °F 17.3 °F 29.83 in NW 0.1 mph 7 mph 68% 0.00 in 0 W/m2
03:54 26.3 °F 17.2 °F 29.83 in NW 0.1 mph 7 mph 68% 0.00 in 0 W/m2
03:59 26.2 °F 17.1 °F 29.83 in Calm   7 mph 68% 0.00 in 0 W/m2
04:04 26.1 °F 17.3 °F 29.83 in Calm   7 mph 68.8% 0.00 in 0 W/m2
04:09 26 °F 17.3 °F 29.84 in Calm     69% 0.00 in 0 W/m2
04:14 25.9 °F 17.2 °F 29.84 in Calm     69% 0.00 in 0 W/m2
04:19 25.8 °F 17 °F 29.84 in Calm     69% 0.00 in 0 W/m2
04:24 25.7 °F 16.9 °F 29.84 in Calm     69% 0.00 in 0 W/m2
04:29 25.5 °F 17.1 °F 29.84 in Calm     69.9% 0.00 in 0 W/m2
04:34 25.4 °F 17 °F 29.83 in Calm     70% 0.00 in 0 W/m2
04:39 25.2 °F 17.1 °F 29.83 in Calm     70.8% 0.00 in 0 W/m2
04:41 25.2 °F 17.1 °F 29.83 in Calm     71% 0.00 in 0 W/m2
05:00 24.8 °F 17.1 °F 29.82 in Calm     72% 0.00 in 0 W/m2
05:30 24.6 °F 16.9 °F 29.82 in Calm   5 mph 72% 0.00 in 0 W/m2
06:00 24.6 °F 16.9 °F 29.83 in NW 1 mph 7 mph 72% 0.00 in 0 W/m2
06:30 24.6 °F 16.6 °F 29.83 in NNW 2 mph 10 mph 71% 0.00 in 0 W/m2
07:30 24.2 °F 16.2 °F 29.85 in NW 3 mph 9 mph 71% 0.00 in 2 W/m2
08:04 25.3 °F 17.3 °F 29.85 in North 2 mph 9 mph 71.3% 0.00 in 72 W/m2
08:09 25.8 °F 17.7 °F 29.85 in North 1.5 mph 10 mph 71% 0.00 in 72 W/m2
08:14 26.4 °F 17.8 °F 29.86 in NNW 2.3 mph 10 mph 69.5% 0.00 in 91 W/m2
08:19 26.9 °F 17.9 °F 29.86 in NNW 3.9 mph 11 mph 68.4% 0.00 in 93 W/m2
08:24 27.3 °F 17.9 °F 29.86 in North 1.9 mph 11 mph 67.3% 0.00 in 105 W/m2
08:29 27.7 °F 18.1 °F 29.86 in NNW 4.3 mph 16 mph 66.6% 0.00 in 111 W/m2
08:34 28 °F 17.8 °F 29.86 in North 4.3 mph 16 mph 65.2% 0.00 in 81 W/m2
08:39 28.1 °F 17.8 °F 29.87 in North 3 mph 13 mph 65% 0.00 in 88 W/m2
08:44 28.2 °F 17.7 °F 29.87 in North 5 mph 13 mph 64.3% 0.00 in 123 W/m2
08:49 28.1 °F 17.3 °F 29.87 in North 5 mph 15 mph 63.4% 0.00 in 100 W/m2
08:54 28.2 °F 17.5 °F 29.87 in NNE 5 mph 15 mph 63.7% 0.00 in 148 W/m2
08:59 28.4 °F 17.4 °F 29.87 in NNW 5.8 mph 15 mph 63% 0.00 in 111 W/m2
09:04 28.4 °F 17.5 °F 29.87 in NNW 6.3 mph 15 mph 63% 0.00 in 113 W/m2
09:09 28.6 °F 17.6 °F 29.87 in North 4.6 mph 18 mph 63% 0.00 in 120 W/m2
09:14 28.8 °F 17.8 °F 29.87 in North 5.1 mph 18 mph 63% 0.00 in 116 W/m2
09:19 29 °F 17.9 °F 29.87 in North 4.7 mph 18 mph 62.6% 0.00 in 127 W/m2
09:24 29.2 °F 17.9 °F 29.86 in NNW 5.7 mph 18 mph 62% 0.00 in 165 W/m2
09:29 29.4 °F 18 °F 29.86 in NNW 6.5 mph 18 mph 62% 0.00 in 70 W/m2
09:34 29.4 °F 17.9 °F 29.86 in North 5.3 mph 18 mph 61.6% 0.00 in 165 W/m2
09:39 29.6 °F 18.1 °F 29.86 in North 4.9 mph 15 mph 61.8% 0.00 in 193 W/m2
09:44 29.9 °F 18.2 °F 29.86 in NNW 4.6 mph 15 mph 61.1% 0.00 in 135 W/m2
09:49 30 °F 18.2 °F 29.86 in NNW 6.9 mph 16 mph 61% 0.00 in 105 W/m2
09:54 29.9 °F 18.1 °F 29.87 in North 4 mph 16 mph 61% 0.00 in 142 W/m2
09:59 29.8 °F 18 °F 29.87 in NNW 5.3 mph 16 mph 61% 0.00 in 118 W/m2
10:04 29.9 °F 18.2 °F 29.87 in NNW 3 mph 16 mph 61.2% 0.00 in 70 W/m2
10:09 30 °F 18.6 °F 29.86 in NNW 3.8 mph 11 mph 62% 0.00 in 111 W/m2
10:14 30.3 °F 18.7 °F 29.86 in NNE 3.2 mph 13 mph 61.5% 0.00 in 171 W/m2
10:19 30.8 °F 19 °F 29.86 in NNE 2.7 mph 13 mph 61.2% 0.00 in 220 W/m2
10:24 31.4 °F 19.3 °F 29.86 in North 3.1 mph 13 mph 60.3% 0.00 in 345 W/m2
10:29 32.2 °F 19.8 °F 29.85 in NNW 5.2 mph 13 mph 59.7% 0.00 in 381 W/m2
10:34 33.1 °F 20.2 °F 29.85 in North 4.3 mph 14 mph 58.8% 0.00 in 373 W/m2
10:39 33.9 °F 20.6 °F 29.85 in NNW 6.2 mph 14 mph 57.8% 0.00 in 436 W/m2
10:44 34.9 °F 21.4 °F 29.85 in North 3.4 mph 14 mph 57.4% 0.00 in 429 W/m2
10:49 35.9 °F 21.5 °F 29.85 in North 3.2 mph 14 mph 55.5% 0.00 in 464 W/m2
10:54 36.4 °F 21.4 °F 29.85 in NNW 5 mph 14 mph 54.3% 0.00 in 471 W/m2
10:59 36.7 °F 21.6 °F 29.84 in NNW 3.7 mph 14 mph 53.8% 0.00 in 455 W/m2
11:04 37 °F 21.7 °F 29.84 in NNE 1.4 mph 14 mph 53.6% 0.00 in 417 W/m2
11:09 37 °F 21.5 °F 29.84 in NNE 2.3 mph 11 mph 53% 0.00 in 332 W/m2
11:14 36.9 °F 21.2 °F 29.83 in North 4 mph 11 mph 52.8% 0.00 in 313 W/m2
11:19 36.9 °F 21.7 °F 29.83 in NNE 3.2 mph 11 mph 53.7% 0.00 in 374 W/m2
11:24 37 °F 21.3 °F 29.83 in NNE 3.5 mph 11 mph 52.7% 0.00 in 327 W/m2
11:29 37 °F 21.5 °F 29.82 in NNW 4.9 mph 11 mph 53.2% 0.00 in 188 W/m2
11:34 36.6 °F 20.9 °F 29.82 in NNW 6.5 mph 18 mph 52.5% 0.00 in 137 W/m2
11:39 36.2 °F 20.8 °F 29.82 in NNW 7 mph 18 mph 53.2% 0.00 in 176 W/m2
11:44 35.8 °F 20.7 °F 29.82 in North 3.7 mph 18 mph 53.7% 0.00 in 192 W/m2
11:49 35.8 °F 21.2 °F 29.81 in North 1.8 mph 18 mph 54.9% 0.00 in 246 W/m2
11:54 36.1 °F 21.6 °F 29.81 in North 3.9 mph 18 mph 55.1% 0.00 in 163 W/m2
11:59 36.4 °F 21.5 °F 29.82 in NNW 4.8 mph 18 mph 54.4% 0.00 in 163 W/m2
12:04 36.3 °F 21.7 °F 29.81 in NW 4 mph 4 mph 55% 0.00 in 134 W/m2
12:09 36.3 °F 21.7 °F 29.82 in NNW 3.8 mph 13 mph 55% 0.00 in 422 W/m2
12:14 36.3 °F 21.5 °F 29.81 in North 2.7 mph 13 mph 54.5% 0.00 in 366 W/m2
12:19 36.3 °F 21.7 °F 29.81 in NNW 2.5 mph 13 mph 55.1% 0.00 in 461 W/m2
12:24 36.5 °F 21.9 °F 29.81 in NNE 2.3 mph 13 mph 55% 0.00 in 494 W/m2
12:29 36.8 °F 21.9 °F 29.80 in NE 1.5 mph 13 mph 54.3% 0.00 in 494 W/m2
12:34 36.9 °F 21.8 °F 29.80 in NNE 2.5 mph 13 mph 54% 0.00 in 346 W/m2
12:39 36.8 °F 22.1 °F 29.80 in NNE 1.9 mph 9 mph 54.8% 0.00 in 327 W/m2
12:44 36.9 °F 22.3 °F 29.80 in NNE 1.7 mph 9 mph 55.2% 0.00 in 434 W/m2
12:49 37.1 °F 22.4 °F 29.80 in North 3.6 mph 12 mph 55% 0.00 in 424 W/m2
12:54 37.5 °F 22.8 °F 29.80 in NNW 4.2 mph 12 mph 54.9% 0.00 in 322 W/m2
12:59 37.8 °F 22.6 °F 29.80 in NNW 2.8 mph 12 mph 53.8% 0.00 in 232 W/m2
13:04 37.8 °F 22.7 °F 29.80 in North 2.2 mph 12 mph 54% 0.00 in 232 W/m2
13:09 37.9 °F 22.9 °F 29.80 in NNW 1.8 mph 7 mph 54.3% 0.00 in 227 W/m2
13:14 37.9 °F 22.8 °F 29.80 in NNW 2.4 mph 11 mph 54% 0.00 in 218 W/m2
13:19 37.9 °F 22.7 °F 29.80 in NNW 3 mph 11 mph 54% 0.00 in 200 W/m2
13:24 37.7 °F 22.5 °F 29.80 in NW 3.9 mph 11 mph 54% 0.00 in 163 W/m2
13:29 37.4 °F 23.1 °F 29.80 in NW 2.5 mph 12 mph 56% 0.00 in 167 W/m2
13:34 37.3 °F 22.9 °F 29.80 in NNW 2.4 mph 12 mph 55.6% 0.00 in 169 W/m2
13:37 37.3 °F 22.8 °F 29.80 in NW 2.9 mph 11 mph 55.3% 0.00 in 153 W/m2
14:00 36.9 °F 23.1 °F 29.80 in NNW 2 mph 13 mph 57% 0.00 in 133 W/m2
14:30 37.1 °F 23.3 °F 29.80 in NNW 1 mph 10 mph 57% 0.00 in 123 W/m2
15:00 36.7 °F 22.5 °F 29.81 in WNW 2 mph 9 mph 56% 0.00 in 86 W/m2
15:30 35.9 °F 21.8 °F 29.81 in WNW 3 mph 12 mph 56% 0.00 in 45 W/m2
16:04 35.2 °F 21.5 °F 29.82 in WNW 4.2 mph 12 mph 56.9% 0.00 in 45 W/m2
16:09 35.1 °F 21.4 °F 29.82 in WNW 3.5 mph 11 mph 57% 0.00 in 9 W/m2
16:14 35.1 °F 21.6 °F 29.82 in NW 3.7 mph 15 mph 57.6% 0.00 in 7 W/m2
16:19 35 °F 21.7 °F 29.82 in NW 2.2 mph 15 mph 58% 0.00 in 5 W/m2
16:24 35 °F 21.8 °F 29.83 in NW 1.8 mph 15 mph 58% 0.00 in 0 W/m2
16:29 35 °F 21.8 °F 29.83 in NW 2 mph 15 mph 58% 0.00 in 0 W/m2
16:34 35.1 °F 21.8 °F 29.83 in NW 2 mph 15 mph 58% 0.00 in 0 W/m2
16:39 35.1 °F 21.8 °F 29.83 in NW 1.8 mph 10 mph 58% 0.00 in 0 W/m2
16:44 35.1 °F 21.8 °F 29.83 in NW 1.9 mph 10 mph 58% 0.00 in 0 W/m2
16:49 35.1 °F 21.8 °F 29.83 in NW 2.4 mph 11 mph 58% 0.00 in 0 W/m2
16:54 35.1 °F 21.8 °F 29.84 in NW 1.9 mph 11 mph 58% 0.00 in 0 W/m2
16:59 35 °F 21.7 °F 29.84 in NW 1.8 mph 11 mph 58% 0.00 in 0 W/m2
17:04 34.9 °F 21.7 °F 29.83 in NW 2.8 mph 12 mph 58% 0.00 in 0 W/m2
17:09 34.9 °F 21.6 °F 29.84 in NW 4.2 mph 12 mph 58% 0.00 in 0 W/m2
17:14 34.8 °F 21.6 °F 29.84 in NNW 2.3 mph 12 mph 58% 0.00 in 0 W/m2
17:19 34.8 °F 21.5 °F 29.84 in NW 2.1 mph 12 mph 58% 0.00 in 0 W/m2
17:20 34.8 °F 21.5 °F 29.84 in NW 5.1 mph 12 mph 58% 0.00 in 0 W/m2
17:30 34.8 °F 21.5 °F 29.85 in NW 2 mph 12 mph 58% 0.00 in 0 W/m2
18:00 34.6 °F 21 °F 29.85 in NNW 1 mph 9 mph 57% 0.00 in 0 W/m2
18:39 34.6 °F 19.3 °F 29.87 in NW 2.9 mph 10 mph 53.1% 0.00 in 0 W/m2
18:44 34.7 °F 19 °F 29.87 in NNW 2.4 mph 10 mph 52.3% 0.00 in 0 W/m2
18:49 34.7 °F 18.9 °F 29.87 in NNW 2.3 mph 10 mph 52% 0.00 in 0 W/m2
18:54 34.7 °F 18.9 °F 29.88 in NNW 2.1 mph 10 mph 52% 0.00 in 0 W/m2
18:59 34.6 °F 18.8 °F 29.88 in NW 3 mph 10 mph 52% 0.00 in 0 W/m2
19:04 34.5 °F 18.7 °F 29.88 in NNW 1.4 mph 10 mph 52% 0.00 in 0 W/m2
19:09 34.5 °F 18.9 °F 29.89 in NNW 0.5 mph 6 mph 52.5% 0.00 in 0 W/m2
19:14 34.4 °F 18.9 °F 29.89 in NNW 1.9 mph 7 mph 52.7% 0.00 in 0 W/m2
19:19 34.4 °F 18.8 °F 29.89 in North 1 mph 7 mph 52.5% 0.00 in 0 W/m2
19:24 34.4 °F 19 °F 29.89 in North 1.7 mph 11 mph 52.8% 0.00 in 0 W/m2
19:29 34.4 °F 19 °F 29.89 in NNW 1.3 mph 11 mph 52.8% 0.00 in 0 W/m2
19:34 34.5 °F 19.2 °F 29.89 in NNW 1.2 mph 11 mph 53% 0.00 in 0 W/m2
19:39 34.5 °F 18.8 °F 29.89 in NNW 2.2 mph 9 mph 52.1% 0.00 in 0 W/m2
19:44 34.6 °F 18.8 °F 29.89 in NNW 2.4 mph 9 mph 52% 0.00 in 0 W/m2
19:49 34.6 °F 18.8 °F 29.89 in NNW 2.1 mph 9 mph 52% 0.00 in 0 W/m2
19:54 34.6 °F 18.8 °F 29.89 in NNW 2.1 mph 9 mph 52% 0.00 in 0 W/m2
19:58 34.5 °F 18.7 °F 29.89 in NNW 2.2 mph 11 mph 52% 0.00 in 0 W/m2
20:04 34.4 °F 18.6 °F 29.89 in NNW 4.8 mph 12 mph 52% 0.00 in 0 W/m2
20:09 34.3 °F 18.3 °F 29.89 in NNW 2.4 mph 12 mph 51.4% 0.00 in 0 W/m2
20:14 34.2 °F 18.4 °F 29.90 in NNW 2.4 mph 12 mph 52% 0.00 in 0 W/m2
20:19 34.1 °F 18 °F 29.90 in NW 2.3 mph 12 mph 51.3% 0.00 in 0 W/m2
20:24 34 °F 18.1 °F 29.90 in NNW 0.9 mph 12 mph 51.7% 0.00 in 0 W/m2
20:29 33.9 °F 18.1 °F 29.90 in NW 2 mph 12 mph 52% 0.00 in 0 W/m2
20:34 33.7 °F 18 °F 29.90 in NW 1.4 mph 12 mph 52% 0.00 in 0 W/m2
20:39 33.6 °F 17.9 °F 29.90 in NNW 2.4 mph 9 mph 52% 0.00 in 0 W/m2
20:44 33.5 °F 17.8 °F 29.90 in NNW 1.3 mph 9 mph 52% 0.00 in 0 W/m2
20:49 33.4 °F 17.7 °F 29.90 in North 1.6 mph 9 mph 52% 0.00 in 0 W/m2
20:54 33.3 °F 17.5 °F 29.90 in NNW 2.3 mph 9 mph 51.8% 0.00 in 0 W/m2
20:59 33.2 °F 17.5 °F 29.91 in NNW 2.9 mph 10 mph 52% 0.00 in 0 W/m2
21:04 33.1 °F 17.4 °F 29.91 in North 1.5 mph 10 mph 52% 0.00 in 0 W/m2
21:09 33 °F 17.3 °F 29.91 in NNW 1.5 mph 9 mph 52% 0.00 in 0 W/m2
21:14 32.9 °F 17.3 °F 29.91 in NW 2.7 mph 10 mph 52% 0.00 in 0 W/m2
21:19 32.9 °F 17.2 °F 29.91 in NNW 1.2 mph 10 mph 52% 0.00 in 0 W/m2
21:24 32.8 °F 17.6 °F 29.91 in NNW 2.2 mph 11 mph 52.9% 0.00 in 0 W/m2
21:29 32.8 °F 17.7 °F 29.91 in NNW 3.4 mph 11 mph 53.4% 0.00 in 0 W/m2
21:34 32.7 °F 17.9 °F 29.91 in NNW 3.5 mph 11 mph 54% 0.00 in 0 W/m2
21:39 32.7 °F 18.3 °F 29.92 in North 1.9 mph 11 mph 55% 0.00 in 0 W/m2
21:44 32.6 °F 18.3 °F 29.92 in NNW 4.2 mph 12 mph 55% 0.00 in 0 W/m2
21:49 32.6 °F 18.6 °F 29.92 in NNW 3 mph 12 mph 56% 0.00 in 0 W/m2
21:54 32.6 °F 18.7 °F 29.92 in NNW 2.4 mph 12 mph 56% 0.00 in 0 W/m2
21:59 32.6 °F 18.7 °F 29.92 in NNW 1.9 mph 12 mph 56.1% 0.00 in 0 W/m2
22:04 32.5 °F 19 °F 29.92 in NNW 2.3 mph 12 mph 57% 0.00 in 0 W/m2
22:09 32.5 °F 19 °F 29.92 in NW 2.1 mph 10 mph 57% 0.00 in 0 W/m2
22:14 32.4 °F 18.9 °F 29.92 in NNW 3.1 mph 11 mph 57.2% 0.00 in 0 W/m2
22:19 32.4 °F 18.9 °F 29.92 in North 2.5 mph 11 mph 57.1% 0.00 in 0 W/m2
22:24 32.4 °F 19.3 °F 29.93 in NNW 2.6 mph 11 mph 58% 0.00 in 0 W/m2
22:29 32.4 °F 19.3 °F 29.93 in North 0.5 mph 11 mph 58% 0.00 in 0 W/m2
22:34 32.3 °F 19.2 °F 29.93 in North 1 mph 11 mph 58% 0.00 in 0 W/m2
22:39 32.3 °F 19.2 °F 29.93 in NNW 1.8 mph 7 mph 58% 0.00 in 0 W/m2
22:44 32.2 °F 19.1 °F 29.93 in NNW 1.3 mph 7 mph 58% 0.00 in 0 W/m2
22:49 32.1 °F 19.2 °F 29.94 in NNW 1.2 mph 7 mph 58.5% 0.00 in 0 W/m2
22:54 32.1 °F 19.2 °F 29.94 in NNW 1.3 mph 7 mph 58.7% 0.00 in 0 W/m2
22:59 32 °F 19.3 °F 29.94 in NNW 1.2 mph 7 mph 59% 0.00 in 0 W/m2
23:04 31.9 °F 19.2 °F 29.94 in North 2.7 mph 4 mph 59% 0.00 in 0 W/m2
23:09 31.9 °F 19.2 °F 29.94 in NNW 1.4 mph 9 mph 59% 0.00 in 0 W/m2
23:14 31.8 °F 19.1 °F 29.94 in North 0.6 mph 9 mph 59% 0.00 in 0 W/m2
23:19 31.8 °F 19.1 °F 29.94 in NNW 1.1 mph 9 mph 59% 0.00 in 0 W/m2
23:24 31.8 °F 19.1 °F 29.94 in NNW 0.3 mph 9 mph 59% 0.00 in 0 W/m2
23:29 31.7 °F 19 °F 29.94 in Calm   9 mph 59% 0.00 in 0 W/m2
23:34 31.7 °F 19 °F 29.94 in NNW 0.4 mph 9 mph 59% 0.00 in 0 W/m2
23:39 31.6 °F 19 °F 29.95 in Calm   3 mph 59% 0.00 in 0 W/m2
23:44 31.6 °F 19 °F 29.95 in Calm   3 mph 59.2% 0.00 in 0 W/m2
23:49 31.5 °F 19.2 °F 29.95 in NNW 0.1 mph 3 mph 59.7% 0.00 in 0 W/m2
23:54 31.5 °F 19.2 °F 29.95 in NNW 0.4 mph 3 mph 60% 0.00 in 0 W/m2
23:59 31.5 °F 19.2 °F 29.95 in NNW 0.4 mph 5 mph 60% 0.00 in 0 W/m2
Hartford County Weather
Compliments of Weather Underground - 2 mb